ADDS METAR Data INFO
IDs: Format: Raw Decoded Include TAF

Data at: 0253 UTC 21 Oct 2017

KEST 210152Z AUTO 16018G27KT 10SM FEW120 18/12 A2970 RMK AO2 PK WND 15028/0136 SLP055 T01830122
KEST 210052Z AUTO 16018G25KT 10SM CLR 19/12 A2971 RMK AO2 PK WND 16028/0018 SLP059 T01890117
KEST 202352Z AUTO 17016G25KT 10SM CLR 19/12 A2972 RMK AO2 PK WND 16027/2339 SLP061 T01940117 10239 20194 55005
KEST 202252Z AUTO 17020G26KT 10SM CLR 21/12 A2971 RMK AO2 PK WND 17029/2217 SLP060 T02110117
KEST 202152Z AUTO 18017G28KT 10SM CLR 22/11 A2973 RMK AO2 PK WND 18035/2103 SLP063 T02220106
KEST 202052Z AUTO 17023G33KT 10SM CLR 23/11 A2973 RMK AO2 PK WND 16033/2052 SLP065 T02330106 56028
KEST 201952Z AUTO 18024G35KT 10SM CLR 23/12 A2975 RMK AO2 PK WND 18035/1952 SLP070 T02330117
KEST 201852Z AUTO 18023G29KT 10SM CLR 24/12 A2978 RMK AO2 PK WND 19034/1840 SLP081 T02390122
KEST 201752Z AUTO 18018G27KT 10SM CLR 22/12 A2982 RMK AO2 PK WND 19032/1731 RAE41 SLP095 P0000 60000 T02170122 10228 20100 58028
KEST 201652Z AUTO 18018G26KT 10SM -RA CLR 21/12 A2985 RMK AO2 PK WND 18026/1608 RAB09 SLP106 P0000 T02060122
KEST 201552Z AUTO 18016G22KT 10SM CLR 17/12 A2988 RMK AO2 SLP117 T01720122
KEST 201452Z AUTO 18014KT 10SM CLR 14/12 A2990 RMK AO2 SLP126 T01440117 58004
KEST 201352Z AUTO 17013KT 10SM CLR 11/11 A2991 RMK AO2 SLP130 T01110106
KEST 201252Z AUTO 18011KT 10SM CLR 10/09 A2992 RMK AO2 SLP131 T01000094
KEST 201152Z AUTO 18012KT 10SM CLR 10/09 A2992 RMK AO2 SLP130 T01000094 10111 20094 56003
KEST 201052Z AUTO 18010KT 10SM CLR 09/09 A2992 RMK AO2 SLP130 T00940089
KEST 200952Z AUTO 18009KT 10SM CLR 10/09 A2992 RMK AO2 SLP129 T01000094
KEST 200752Z AUTO 19009KT 10SM CLR 11/10 A2993 RMK AO2 SLP132 T01060100
KEST 200652Z AUTO 17009KT 10SM CLR 11/10 A2993 RMK AO2 SLP134 T01060100
KEST 200552Z AUTO 18008KT 10SM CLR 11/11 A2993 RMK AO2 SLP134 T01110106 10178 20106 402220017 58005
KEST 200452Z AUTO 18009KT 10SM CLR 12/11 A2994 RMK AO2 SLP138 T01170106
KEST 200352Z AUTO 19007KT 10SM CLR 12/11 A2994 RMK AO2 SLP141 T01220106
KEST 200252Z AUTO 18009KT 10SM CLR 14/10 A2995 RMK AO2 SLP142 T01390100 58004
KEST 200152Z AUTO 16009KT 10SM CLR 15/09 A2995 RMK AO2 SLP146 T01500089
KEST 200052Z AUTO 17008KT 10SM CLR 16/08 A2996 RMK AO2 SLP151 T01560083
KEST 192352Z AUTO 17009KT 10SM CLR 17/08 A2996 RMK AO2 SLP149 T01720078 10222 20172 56008
KEST 192252Z AUTO 17008KT 10SM CLR 20/07 A2996 RMK AO2 SLP150 T02000072
KEST 192152Z AUTO 17014G22KT 10SM CLR 22/07 A2997 RMK AO2 SLP151 T02170067
KEST 192052Z AUTO 18016G22KT 10SM CLR 22/06 A2999 RMK AO2 SLP156 T02220061 56027
KEST 191852Z AUTO 19013G22KT 10SM CLR 21/04 A3003 RMK AO2 SLP172 T02060039
KEST 191752Z AUTO 18016KT 10SM CLR 18/02 A3007 RMK AO2 SLP185 T01830022 10183 20017 58008
KEST 191552Z AUTO 16015G19KT 10SM CLR 13/00 A3009 RMK AO2 SLP194 T01330000